sensor_id;sensor_type;location;lat;lon;timestamp;temperature;humidity
23081;DHT22;11708;50.570;8.532;2022-09-03T00:00:23;16.20;94.70
23081;DHT22;11708;50.570;8.532;2022-09-03T00:06:00;16.10;95.00
23081;DHT22;11708;50.570;8.532;2022-09-03T00:08:34;16.10;95.50
23081;DHT22;11708;50.570;8.532;2022-09-03T00:11:19;16.10;96.10
23081;DHT22;11708;50.570;8.532;2022-09-03T00:14:08;16.00;96.50
23081;DHT22;11708;50.570;8.532;2022-09-03T00:16:45;15.90;97.20
23081;DHT22;11708;50.570;8.532;2022-09-03T00:19:16;15.80;99.90
23081;DHT22;11708;50.570;8.532;2022-09-03T00:21:48;15.80;99.90
23081;DHT22;11708;50.570;8.532;2022-09-03T00:24:18;15.80;99.30
23081;DHT22;11708;50.570;8.532;2022-09-03T00:26:54;15.70;99.80
23081;DHT22;11708;50.570;8.532;2022-09-03T00:29:28;15.90;99.90
23081;DHT22;11708;50.570;8.532;2022-09-03T00:32:01;15.60;99.90
23081;DHT22;11708;50.570;8.532;2022-09-03T00:34:38;15.60;99.90
23081;DHT22;11708;50.570;8.532;2022-09-03T00:37:08;15.50;99.90
23081;DHT22;11708;50.570;8.532;2022-09-03T00:39:35;15.50;99.90
23081;DHT22;11708;50.570;8.532;2022-09-03T00:44:59;15.40;99.90
23081;DHT22;11708;50.570;8.532;2022-09-03T00:53:06;15.30;99.90
23081;DHT22;11708;50.570;8.532;2022-09-03T00:55:51;15.20;99.90
23081;DHT22;11708;50.570;8.532;2022-09-03T01:01:19;15.20;99.90
23081;DHT22;11708;50.570;8.532;2022-09-03T01:03:54;15.10;99.90
23081;DHT22;11708;50.570;8.532;2022-09-03T01:20:28;14.90;99.90
23081;DHT22;11708;50.570;8.532;2022-09-03T01:29:33;14.90;99.90
23081;DHT22;11708;50.570;8.532;2022-09-03T01:32:08;14.80;99.90
23081;DHT22;11708;50.570;8.532;2022-09-03T01:35:06;14.80;99.90
23081;DHT22;11708;50.570;8.532;2022-09-03T01:37:43;14.80;99.90
23081;DHT22;11708;50.570;8.532;2022-09-03T01:40:36;14.80;99.90
23081;DHT22;11708;50.570;8.532;2022-09-03T01:43:43;14.70;99.90
23081;DHT22;11708;50.570;8.532;2022-09-03T01:46:23;14.70;99.90
23081;DHT22;11708;50.570;8.532;2022-09-03T01:51:35;14.60;99.90
23081;DHT22;11708;50.570;8.532;2022-09-03T01:59:41;14.50;99.90
23081;DHT22;11708;50.570;8.532;2022-09-03T02:02:17;14.50;99.90
23081;DHT22;11708;50.570;8.532;2022-09-03T02:05:25;14.40;99.90
23081;DHT22;11708;50.570;8.532;2022-09-03T02:08:02;14.50;99.90
23081;DHT22;11708;50.570;8.532;2022-09-03T02:10:34;14.40;99.90
23081;DHT22;11708;50.570;8.532;2022-09-03T02:13:28;14.20;99.90
23081;DHT22;11708;50.570;8.532;2022-09-03T02:15:59;14.40;99.90
23081;DHT22;11708;50.570;8.532;2022-09-03T02:18:37;14.30;99.90
23081;DHT22;11708;50.570;8.532;2022-09-03T02:21:06;14.40;99.90
23081;DHT22;11708;50.570;8.532;2022-09-03T02:23:32;14.20;99.90
23081;DHT22;11708;50.570;8.532;2022-09-03T02:26:01;14.20;99.90
23081;DHT22;11708;50.570;8.532;2022-09-03T02:28:28;14.20;99.90
23081;DHT22;11708;50.570;8.532;2022-09-03T02:30:55;14.20;99.90
23081;DHT22;11708;50.570;8.532;2022-09-03T02:33:21;14.10;99.90
23081;DHT22;11708;50.570;8.532;2022-09-03T02:35:47;14.10;99.90
23081;DHT22;11708;50.570;8.532;2022-09-03T02:38:16;14.00;99.90
23081;DHT22;11708;50.570;8.532;2022-09-03T02:40:42;14.00;99.90
23081;DHT22;11708;50.570;8.532;2022-09-03T02:43:12;14.10;99.90
23081;DHT22;11708;50.570;8.532;2022-09-03T02:45:47;13.90;99.90
23081;DHT22;11708;50.570;8.532;2022-09-03T02:48:19;14.00;99.90
23081;DHT22;11708;50.570;8.532;2022-09-03T02:50:46;13.90;99.90
23081;DHT22;11708;50.570;8.532;2022-09-03T02:53:13;13.90;99.90
23081;DHT22;11708;50.570;8.532;2022-09-03T02:55:39;13.90;99.90
23081;DHT22;11708;50.570;8.532;2022-09-03T02:58:04;13.90;99.90
23081;DHT22;11708;50.570;8.532;2022-09-03T03:00:34;13.90;99.90
23081;DHT22;11708;50.570;8.532;2022-09-03T03:03:03;14.10;99.90
23081;DHT22;11708;50.570;8.532;2022-09-03T03:05:50;13.90;99.90
23081;DHT22;11708;50.570;8.532;2022-09-03T03:08:17;13.90;99.90
23081;DHT22;11708;50.570;8.532;2022-09-03T03:10:46;13.80;99.90
23081;DHT22;11708;50.570;8.532;2022-09-03T03:13:14;15.00;99.90
23081;DHT22;11708;50.570;8.532;2022-09-03T03:15:41;14.10;99.90
23081;DHT22;11708;50.570;8.532;2022-09-03T03:18:06;13.80;99.90
23081;DHT22;11708;50.570;8.532;2022-09-03T03:20:36;13.70;99.90
23081;DHT22;11708;50.570;8.532;2022-09-03T03:23:02;13.70;99.90
23081;DHT22;11708;50.570;8.532;2022-09-03T03:25:31;13.70;99.90
23081;DHT22;11708;50.570;8.532;2022-09-03T03:27:57;13.70;99.90
23081;DHT22;11708;50.570;8.532;2022-09-03T03:30:24;13.70;99.90
23081;DHT22;11708;50.570;8.532;2022-09-03T03:32:52;13.80;99.90
23081;DHT22;11708;50.570;8.532;2022-09-03T03:35:18;13.60;99.90
23081;DHT22;11708;50.570;8.532;2022-09-03T03:37:43;13.60;99.90
23081;DHT22;11708;50.570;8.532;2022-09-03T03:40:09;13.60;99.90
23081;DHT22;11708;50.570;8.532;2022-09-03T03:42:36;13.60;99.90
23081;DHT22;11708;50.570;8.532;2022-09-03T03:45:03;13.60;99.90
23081;DHT22;11708;50.570;8.532;2022-09-03T03:47:29;13.60;99.90
23081;DHT22;11708;50.570;8.532;2022-09-03T03:49:56;13.60;99.90
23081;DHT22;11708;50.570;8.532;2022-09-03T03:52:23;13.60;99.90
23081;DHT22;11708;50.570;8.532;2022-09-03T03:54:49;13.60;99.90
23081;DHT22;11708;50.570;8.532;2022-09-03T03:57:15;13.60;99.90
23081;DHT22;11708;50.570;8.532;2022-09-03T03:59:40;13.60;99.90
23081;DHT22;11708;50.570;8.532;2022-09-03T04:02:06;13.60;99.90
23081;DHT22;11708;50.570;8.532;2022-09-03T04:04:31;13.60;99.90
23081;DHT22;11708;50.570;8.532;2022-09-03T04:06:57;13.50;99.90
23081;DHT22;11708;50.570;8.532;2022-09-03T04:09:23;13.50;99.90
23081;DHT22;11708;50.570;8.532;2022-09-03T04:11:48;13.50;99.90
23081;DHT22;11708;50.570;8.532;2022-09-03T04:14:15;13.50;99.90
23081;DHT22;11708;50.570;8.532;2022-09-03T04:16:42;13.50;99.90
23081;DHT22;11708;50.570;8.532;2022-09-03T04:19:12;13.80;99.90
23081;DHT22;11708;50.570;8.532;2022-09-03T04:21:38;13.40;99.90
23081;DHT22;11708;50.570;8.532;2022-09-03T04:24:04;13.40;99.90
23081;DHT22;11708;50.570;8.532;2022-09-03T04:26:32;13.40;99.90
23081;DHT22;11708;50.570;8.532;2022-09-03T04:28:59;13.30;99.90
23081;DHT22;11708;50.570;8.532;2022-09-03T04:31:25;13.30;99.90
23081;DHT22;11708;50.570;8.532;2022-09-03T04:33:51;13.40;99.90
23081;DHT22;11708;50.570;8.532;2022-09-03T04:36:21;13.40;99.90
23081;DHT22;11708;50.570;8.532;2022-09-03T04:38:50;13.40;99.90
23081;DHT22;11708;50.570;8.532;2022-09-03T04:41:18;13.50;99.90
23081;DHT22;11708;50.570;8.532;2022-09-03T04:43:44;13.50;99.90
23081;DHT22;11708;50.570;8.532;2022-09-03T04:46:12;13.70;99.90
23081;DHT22;11708;50.570;8.532;2022-09-03T04:48:38;13.40;99.90
23081;DHT22;11708;50.570;8.532;2022-09-03T04:51:06;13.30;99.90
23081;DHT22;11708;50.570;8.532;2022-09-03T04:53:37;13.30;99.90
23081;DHT22;11708;50.570;8.532;2022-09-03T04:56:15;13.30;99.90
23081;DHT22;11708;50.570;8.532;2022-09-03T04:58:41;13.30;99.90
23081;DHT22;11708;50.570;8.532;2022-09-03T05:01:14;13.70;99.90
23081;DHT22;11708;50.570;8.532;2022-09-03T05:03:40;13.30;99.90
23081;DHT22;11708;50.570;8.532;2022-09-03T05:06:06;13.30;99.90
23081;DHT22;11708;50.570;8.532;2022-09-03T05:08:32;13.30;99.90
23081;DHT22;11708;50.570;8.532;2022-09-03T05:11:03;13.30;99.90
23081;DHT22;11708;50.570;8.532;2022-09-03T05:13:32;13.30;99.90
23081;DHT22;11708;50.570;8.532;2022-09-03T05:15:59;13.30;99.90
23081;DHT22;11708;50.570;8.532;2022-09-03T05:18:25;13.40;99.90
23081;DHT22;11708;50.570;8.532;2022-09-03T05:21:05;13.40;99.90
23081;DHT22;11708;50.570;8.532;2022-09-03T05:23:34;13.40;99.90
23081;DHT22;11708;50.570;8.532;2022-09-03T05:26:01;13.40;99.90
23081;DHT22;11708;50.570;8.532;2022-09-03T05:28:29;13.50;99.90
23081;DHT22;11708;50.570;8.532;2022-09-03T05:31:21;13.50;99.90
23081;DHT22;11708;50.570;8.532;2022-09-03T05:33:52;13.60;99.90
23081;DHT22;11708;50.570;8.532;2022-09-03T05:36:21;13.60;99.90
23081;DHT22;11708;50.570;8.532;2022-09-03T05:38:48;13.70;99.90
23081;DHT22;11708;50.570;8.532;2022-09-03T05:41:17;13.70;99.90
23081;DHT22;11708;50.570;8.532;2022-09-03T05:43:43;13.80;99.90
23081;DHT22;11708;50.570;8.532;2022-09-03T05:46:13;14.10;99.90
23081;DHT22;11708;50.570;8.532;2022-09-03T05:48:43;13.90;99.90
23081;DHT22;11708;50.570;8.532;2022-09-03T05:51:09;14.00;99.90
23081;DHT22;11708;50.570;8.532;2022-09-03T05:53:37;14.10;99.90
23081;DHT22;11708;50.570;8.532;2022-09-03T05:56:06;14.10;99.90
23081;DHT22;11708;50.570;8.532;2022-09-03T05:58:37;14.30;99.90
23081;DHT22;11708;50.570;8.532;2022-09-03T06:01:25;14.30;99.90
23081;DHT22;11708;50.570;8.532;2022-09-03T06:04:01;14.30;99.90
23081;DHT22;11708;50.570;8.532;2022-09-03T06:06:30;14.40;99.90
23081;DHT22;11708;50.570;8.532;2022-09-03T06:09:02;14.50;99.90
23081;DHT22;11708;50.570;8.532;2022-09-03T06:11:29;14.60;99.90
23081;DHT22;11708;50.570;8.532;2022-09-03T06:13:59;14.60;99.90
23081;DHT22;11708;50.570;8.532;2022-09-03T06:16:31;14.70;99.90
23081;DHT22;11708;50.570;8.532;2022-09-03T06:18:58;14.70;99.90
23081;DHT22;11708;50.570;8.532;2022-09-03T06:21:24;14.70;99.90
23081;DHT22;11708;50.570;8.532;2022-09-03T06:23:51;14.80;99.90
23081;DHT22;11708;50.570;8.532;2022-09-03T06:26:17;14.70;99.90
23081;DHT22;11708;50.570;8.532;2022-09-03T06:28:44;14.80;99.90
23081;DHT22;11708;50.570;8.532;2022-09-03T06:31:12;14.80;99.90
23081;DHT22;11708;50.570;8.532;2022-09-03T06:33:39;14.70;99.90
23081;DHT22;11708;50.570;8.532;2022-09-03T06:36:09;14.70;99.90
23081;DHT22;11708;50.570;8.532;2022-09-03T06:38:36;14.70;99.90
23081;DHT22;11708;50.570;8.532;2022-09-03T06:41:07;14.70;99.90
23081;DHT22;11708;50.570;8.532;2022-09-03T06:43:37;14.80;99.90
23081;DHT22;11708;50.570;8.532;2022-09-03T06:46:17;14.80;99.90
23081;DHT22;11708;50.570;8.532;2022-09-03T06:48:43;14.90;99.90
23081;DHT22;11708;50.570;8.532;2022-09-03T06:51:12;15.00;99.90
23081;DHT22;11708;50.570;8.532;2022-09-03T06:53:40;15.00;99.90
23081;DHT22;11708;50.570;8.532;2022-09-03T06:56:08;15.10;99.90
23081;DHT22;11708;50.570;8.532;2022-09-03T06:58:43;15.00;99.90
23081;DHT22;11708;50.570;8.532;2022-09-03T07:01:17;15.20;99.90
23081;DHT22;11708;50.570;8.532;2022-09-03T07:03:46;15.20;99.90
23081;DHT22;11708;50.570;8.532;2022-09-03T07:06:17;15.20;99.90
23081;DHT22;11708;50.570;8.532;2022-09-03T07:08:43;15.20;99.90
23081;DHT22;11708;50.570;8.532;2022-09-03T07:11:12;15.20;99.90
23081;DHT22;11708;50.570;8.532;2022-09-03T07:13:43;15.30;99.90
23081;DHT22;11708;50.570;8.532;2022-09-03T07:16:21;15.20;99.90
23081;DHT22;11708;50.570;8.532;2022-09-03T07:18:49;15.20;99.90
23081;DHT22;11708;50.570;8.532;2022-09-03T07:21:20;15.20;99.90
23081;DHT22;11708;50.570;8.532;2022-09-03T07:23:47;15.30;99.90
23081;DHT22;11708;50.570;8.532;2022-09-03T07:26:18;15.40;99.90
23081;DHT22;11708;50.570;8.532;2022-09-03T07:28:45;15.60;99.90
23081;DHT22;11708;50.570;8.532;2022-09-03T07:31:18;15.70;99.90
23081;DHT22;11708;50.570;8.532;2022-09-03T07:33:45;15.70;99.90
23081;DHT22;11708;50.570;8.532;2022-09-03T07:36:15;16.60;99.90
23081;DHT22;11708;50.570;8.532;2022-09-03T07:38:42;15.90;99.90
23081;DHT22;11708;50.570;8.532;2022-09-03T07:41:10;16.30;99.90
23081;DHT22;11708;50.570;8.532;2022-09-03T07:43:39;16.10;99.90
23081;DHT22;11708;50.570;8.532;2022-09-03T07:46:09;16.30;99.90
23081;DHT22;11708;50.570;8.532;2022-09-03T07:48:38;16.40;99.90
23081;DHT22;11708;50.570;8.532;2022-09-03T07:51:04;16.60;99.90
23081;DHT22;11708;50.570;8.532;2022-09-03T07:53:30;16.70;99.90
23081;DHT22;11708;50.570;8.532;2022-09-03T07:56:07;17.00;99.90
23081;DHT22;11708;50.570;8.532;2022-09-03T07:58:34;17.00;99.90
23081;DHT22;11708;50.570;8.532;2022-09-03T08:01:11;17.10;99.90
23081;DHT22;11708;50.570;8.532;2022-09-03T08:03:38;17.20;99.90
23081;DHT22;11708;50.570;8.532;2022-09-03T08:06:07;17.40;99.90
23081;DHT22;11708;50.570;8.532;2022-09-03T08:08:34;17.40;99.90
23081;DHT22;11708;50.570;8.532;2022-09-03T08:11:15;17.70;99.90
23081;DHT22;11708;50.570;8.532;2022-09-03T08:14:02;17.60;99.90
23081;DHT22;11708;50.570;8.532;2022-09-03T08:16:33;17.70;99.90
23081;DHT22;11708;50.570;8.532;2022-09-03T08:18:59;17.80;99.90
23081;DHT22;11708;50.570;8.532;2022-09-03T08:21:26;17.70;99.90
23081;DHT22;11708;50.570;8.532;2022-09-03T08:23:54;17.70;99.90
23081;DHT22;11708;50.570;8.532;2022-09-03T08:26:30;17.90;99.90
23081;DHT22;11708;50.570;8.532;2022-09-03T08:28:57;18.00;99.90
23081;DHT22;11708;50.570;8.532;2022-09-03T08:31:23;18.50;99.90
23081;DHT22;11708;50.570;8.532;2022-09-03T08:33:52;18.20;99.90
23081;DHT22;11708;50.570;8.532;2022-09-03T08:38:48;18.20;99.90
23081;DHT22;11708;50.570;8.532;2022-09-03T08:46:52;18.20;99.90
23081;DHT22;11708;50.570;8.532;2022-09-03T08:52:00;18.20;99.90
23081;DHT22;11708;50.570;8.532;2022-09-03T08:54:29;18.20;99.90
23081;DHT22;11708;50.570;8.532;2022-09-03T08:56:59;18.20;99.90
23081;DHT22;11708;50.570;8.532;2022-09-03T08:59:26;18.10;99.90
23081;DHT22;11708;50.570;8.532;2022-09-03T09:01:58;18.10;99.90
23081;DHT22;11708;50.570;8.532;2022-09-03T09:04:58;18.10;99.90
23081;DHT22;11708;50.570;8.532;2022-09-03T09:07:36;18.20;99.90
23081;DHT22;11708;50.570;8.532;2022-09-03T09:12:46;18.30;99.90
23081;DHT22;11708;50.570;8.532;2022-09-03T09:18:05;18.60;99.90
23081;DHT22;11708;50.570;8.532;2022-09-03T09:23:34;18.80;99.90
23081;DHT22;11708;50.570;8.532;2022-09-03T09:26:07;18.90;99.90
23081;DHT22;11708;50.570;8.532;2022-09-03T09:28:36;19.00;99.90
23081;DHT22;11708;50.570;8.532;2022-09-03T09:31:04;19.10;99.90
23081;DHT22;11708;50.570;8.532;2022-09-03T09:33:33;19.20;99.90
23081;DHT22;11708;50.570;8.532;2022-09-03T09:36:02;19.90;99.90
23081;DHT22;11708;50.570;8.532;2022-09-03T09:38:34;19.30;99.90
23081;DHT22;11708;50.570;8.532;2022-09-03T09:41:17;19.40;99.90
23081;DHT22;11708;50.570;8.532;2022-09-03T09:43:45;19.40;99.90
23081;DHT22;11708;50.570;8.532;2022-09-03T09:46:24;19.40;99.90
23081;DHT22;11708;50.570;8.532;2022-09-03T09:48:54;19.40;99.90
23081;DHT22;11708;50.570;8.532;2022-09-03T09:54:23;19.60;99.90
23081;DHT22;11708;50.570;8.532;2022-09-03T09:56:57;19.70;99.90
23081;DHT22;11708;50.570;8.532;2022-09-03T09:59:22;19.80;99.90
23081;DHT22;11708;50.570;8.532;2022-09-03T10:01:48;20.10;99.90
23081;DHT22;11708;50.570;8.532;2022-09-03T10:04:23;19.90;99.90
23081;DHT22;11708;50.570;8.532;2022-09-03T10:07:02;19.90;99.90
23081;DHT22;11708;50.570;8.532;2022-09-03T10:09:31;19.90;99.90
23081;DHT22;11708;50.570;8.532;2022-09-03T10:12:13;19.90;99.90
23081;DHT22;11708;50.570;8.532;2022-09-03T10:14:48;20.00;99.90
23081;DHT22;11708;50.570;8.532;2022-09-03T10:20:30;20.20;99.90
23081;DHT22;11708;50.570;8.532;2022-09-03T10:23:47;20.30;99.90
23081;DHT22;11708;50.570;8.532;2022-09-03T10:28:24;20.80;99.90
23081;DHT22;11708;50.570;8.532;2022-09-03T10:31:31;20.80;99.90
23081;DHT22;11708;50.570;8.532;2022-09-03T10:36:45;20.70;99.90
23081;DHT22;11708;50.570;8.532;2022-09-03T10:39:55;20.70;99.90
23081;DHT22;11708;50.570;8.532;2022-09-03T10:42:32;20.60;99.90
23081;DHT22;11708;50.570;8.532;2022-09-03T10:51:26;20.40;99.90
23081;DHT22;11708;50.570;8.532;2022-09-03T11:02:00;20.10;99.90
23081;DHT22;11708;50.570;8.532;2022-09-03T11:04:45;20.10;99.90
23081;DHT22;11708;50.570;8.532;2022-09-03T11:07:19;20.00;99.90
23081;DHT22;11708;50.570;8.532;2022-09-03T11:09:56;20.00;99.90
23081;DHT22;11708;50.570;8.532;2022-09-03T11:12:31;19.90;99.90
23081;DHT22;11708;50.570;8.532;2022-09-03T11:15:06;20.00;99.90
23081;DHT22;11708;50.570;8.532;2022-09-03T11:17:39;19.90;99.90
23081;DHT22;11708;50.570;8.532;2022-09-03T11:20:22;19.90;99.90
23081;DHT22;11708;50.570;8.532;2022-09-03T11:22:54;19.90;99.90
23081;DHT22;11708;50.570;8.532;2022-09-03T11:25:25;19.80;99.90
23081;DHT22;11708;50.570;8.532;2022-09-03T11:28:15;19.80;99.90
23081;DHT22;11708;50.570;8.532;2022-09-03T11:31:09;19.90;99.90
23081;DHT22;11708;50.570;8.532;2022-09-03T11:33:48;20.10;99.90
23081;DHT22;11708;50.570;8.532;2022-09-03T11:36:29;19.90;99.90
23081;DHT22;11708;50.570;8.532;2022-09-03T11:38:55;20.00;99.90
23081;DHT22;11708;50.570;8.532;2022-09-03T11:41:33;20.10;99.90
23081;DHT22;11708;50.570;8.532;2022-09-03T11:44:17;20.20;99.90
23081;DHT22;11708;50.570;8.532;2022-09-03T11:46:56;20.30;99.90
23081;DHT22;11708;50.570;8.532;2022-09-03T11:49:31;20.40;99.90
23081;DHT22;11708;50.570;8.532;2022-09-03T11:52:04;20.50;99.90
23081;DHT22;11708;50.570;8.532;2022-09-03T11:54:43;20.60;99.90
23081;DHT22;11708;50.570;8.532;2022-09-03T11:57:12;20.80;99.90
23081;DHT22;11708;50.570;8.532;2022-09-03T11:59:41;20.90;99.90
23081;DHT22;11708;50.570;8.532;2022-09-03T12:08:04;21.50;99.90
23081;DHT22;11708;50.570;8.532;2022-09-03T12:13:16;22.30;99.90
23081;DHT22;11708;50.570;8.532;2022-09-03T12:16:17;22.20;99.90
23081;DHT22;11708;50.570;8.532;2022-09-03T12:18:47;22.40;99.90
23081;DHT22;11708;50.570;8.532;2022-09-03T12:21:17;22.50;99.90
23081;DHT22;11708;50.570;8.532;2022-09-03T12:23:48;22.70;99.90
23081;DHT22;11708;50.570;8.532;2022-09-03T12:26:20;23.00;99.90
23081;DHT22;11708;50.570;8.532;2022-09-03T12:28:56;23.20;99.90
23081;DHT22;11708;50.570;8.532;2022-09-03T12:31:30;23.40;99.90
23081;DHT22;11708;50.570;8.532;2022-09-03T12:34:02;23.70;99.90
23081;DHT22;11708;50.570;8.532;2022-09-03T12:36:39;24.00;99.90
23081;DHT22;11708;50.570;8.532;2022-09-03T12:39:09;24.50;99.90
23081;DHT22;11708;50.570;8.532;2022-09-03T12:41:35;25.00;99.90
23081;DHT22;11708;50.570;8.532;2022-09-03T12:44:02;25.40;99.90
23081;DHT22;11708;50.570;8.532;2022-09-03T12:46:30;25.60;99.90
23081;DHT22;11708;50.570;8.532;2022-09-03T12:49:04;25.70;99.60
23081;DHT22;11708;50.570;8.532;2022-09-03T12:51:37;25.80;99.40
23081;DHT22;11708;50.570;8.532;2022-09-03T12:54:05;25.90;98.80
23081;DHT22;11708;50.570;8.532;2022-09-03T12:56:34;26.00;98.30
23081;DHT22;11708;50.570;8.532;2022-09-03T12:59:10;25.90;97.70
23081;DHT22;11708;50.570;8.532;2022-09-03T13:01:46;25.80;97.80
23081;DHT22;11708;50.570;8.532;2022-09-03T13:04:23;25.80;97.70
23081;DHT22;11708;50.570;8.532;2022-09-03T13:09:35;26.10;98.10
23081;DHT22;11708;50.570;8.532;2022-09-03T13:12:02;26.40;97.20
23081;DHT22;11708;50.570;8.532;2022-09-03T13:14:44;26.70;96.90
23081;DHT22;11708;50.570;8.532;2022-09-03T13:17:29;26.90;96.00
23081;DHT22;11708;50.570;8.532;2022-09-03T13:25:28;26.40;96.30
23081;DHT22;11708;50.570;8.532;2022-09-03T13:30:52;26.00;96.60
23081;DHT22;11708;50.570;8.532;2022-09-03T13:33:23;25.90;96.70
23081;DHT22;11708;50.570;8.532;2022-09-03T13:36:13;25.90;96.60
23081;DHT22;11708;50.570;8.532;2022-09-03T13:38:42;25.80;96.90
23081;DHT22;11708;50.570;8.532;2022-09-03T13:46:54;25.80;97.50
23081;DHT22;11708;50.570;8.532;2022-09-03T13:49:39;26.10;97.00
23081;DHT22;11708;50.570;8.532;2022-09-03T13:52:57;26.70;96.80
23081;DHT22;11708;50.570;8.532;2022-09-03T13:55:40;27.50;95.60
23081;DHT22;11708;50.570;8.532;2022-09-03T13:58:23;27.80;94.50
23081;DHT22;11708;50.570;8.532;2022-09-03T14:03:54;27.90;93.60
23081;DHT22;11708;50.570;8.532;2022-09-03T14:06:48;27.70;93.90
23081;DHT22;11708;50.570;8.532;2022-09-03T14:09:22;27.50;93.90
23081;DHT22;11708;50.570;8.532;2022-09-03T14:12:02;27.20;94.30
23081;DHT22;11708;50.570;8.532;2022-09-03T14:15:02;26.80;94.60
23081;DHT22;11708;50.570;8.532;2022-09-03T14:20:28;26.90;95.00
23081;DHT22;11708;50.570;8.532;2022-09-03T14:26:18;26.80;94.90
23081;DHT22;11708;50.570;8.532;2022-09-03T14:29:14;26.80;94.90
23081;DHT22;11708;50.570;8.532;2022-09-03T14:39:53;26.40;94.40
23081;DHT22;11708;50.570;8.532;2022-09-03T14:48:00;26.10;95.40
23081;DHT22;11708;50.570;8.532;2022-09-03T15:01:31;25.60;96.00
23081;DHT22;11708;50.570;8.532;2022-09-03T15:04:02;25.60;96.30
23081;DHT22;11708;50.570;8.532;2022-09-03T15:09:55;25.30;97.10
23081;DHT22;11708;50.570;8.532;2022-09-03T15:12:45;25.10;96.70
23081;DHT22;11708;50.570;8.532;2022-09-03T15:15:34;25.10;97.00
23081;DHT22;11708;50.570;8.532;2022-09-03T15:20:53;24.90;97.80
23081;DHT22;11708;50.570;8.532;2022-09-03T15:23:30;24.80;98.10
23081;DHT22;11708;50.570;8.532;2022-09-03T15:26:36;24.70;98.30
23081;DHT22;11708;50.570;8.532;2022-09-03T15:29:41;24.70;98.50
23081;DHT22;11708;50.570;8.532;2022-09-03T15:32:37;24.70;98.40
23081;DHT22;11708;50.570;8.532;2022-09-03T15:37:43;24.70;98.50
23081;DHT22;11708;50.570;8.532;2022-09-03T15:40:30;24.70;98.60
23081;DHT22;11708;50.570;8.532;2022-09-03T15:43:08;24.70;98.60
23081;DHT22;11708;50.570;8.532;2022-09-03T15:50:56;24.50;98.80
23081;DHT22;11708;50.570;8.532;2022-09-03T15:53:36;24.40;98.80
23081;DHT22;11708;50.570;8.532;2022-09-03T15:56:31;24.40;99.00
23081;DHT22;11708;50.570;8.532;2022-09-03T16:02:09;24.40;99.10
23081;DHT22;11708;50.570;8.532;2022-09-03T16:10:22;24.90;98.80
23081;DHT22;11708;50.570;8.532;2022-09-03T16:15:45;25.20;97.90
23081;DHT22;11708;50.570;8.532;2022-09-03T16:21:22;25.20;97.50
23081;DHT22;11708;50.570;8.532;2022-09-03T16:24:16;25.20;97.40
23081;DHT22;11708;50.570;8.532;2022-09-03T16:29:16;25.00;97.50
23081;DHT22;11708;50.570;8.532;2022-09-03T16:37:24;24.80;97.90
23081;DHT22;11708;50.570;8.532;2022-09-03T16:40:17;24.70;98.00
23081;DHT22;11708;50.570;8.532;2022-09-03T16:48:14;24.40;98.50
23081;DHT22;11708;50.570;8.532;2022-09-03T16:54:04;24.20;98.90
23081;DHT22;11708;50.570;8.532;2022-09-03T17:07:52;23.80;99.70
23081;DHT22;11708;50.570;8.532;2022-09-03T17:16:38;23.50;99.90
23081;DHT22;11708;50.570;8.532;2022-09-03T17:24:50;23.30;99.90
23081;DHT22;11708;50.570;8.532;2022-09-03T17:27:50;23.20;99.90
23081;DHT22;11708;50.570;8.532;2022-09-03T17:35:29;23.00;99.90
23081;DHT22;11708;50.570;8.532;2022-09-03T17:41:10;23.00;99.90
23081;DHT22;11708;50.570;8.532;2022-09-03T17:49:02;22.70;99.90
23081;DHT22;11708;50.570;8.532;2022-09-03T17:51:57;22.60;99.90
23081;DHT22;11708;50.570;8.532;2022-09-03T17:54:45;22.60;99.90
23081;DHT22;11708;50.570;8.532;2022-09-03T17:57:29;22.50;99.90
23081;DHT22;11708;50.570;8.532;2022-09-03T18:00:05;22.50;99.90
23081;DHT22;11708;50.570;8.532;2022-09-03T18:02:49;22.40;99.90
23081;DHT22;11708;50.570;8.532;2022-09-03T18:05:25;22.40;99.90
23081;DHT22;11708;50.570;8.532;2022-09-03T18:08:13;22.30;99.90
23081;DHT22;11708;50.570;8.532;2022-09-03T18:10:58;22.20;99.90
23081;DHT22;11708;50.570;8.532;2022-09-03T18:16:27;22.10;99.90
23081;DHT22;11708;50.570;8.532;2022-09-03T18:19:35;22.00;99.90
23081;DHT22;11708;50.570;8.532;2022-09-03T18:22:28;21.90;99.90
23081;DHT22;11708;50.570;8.532;2022-09-03T18:25:16;21.80;99.90
23081;DHT22;11708;50.570;8.532;2022-09-03T18:28:04;21.70;99.90
23081;DHT22;11708;50.570;8.532;2022-09-03T18:30:49;21.60;99.90
23081;DHT22;11708;50.570;8.532;2022-09-03T18:33:35;21.50;99.90
23081;DHT22;11708;50.570;8.532;2022-09-03T18:36:20;21.40;99.90
23081;DHT22;11708;50.570;8.532;2022-09-03T18:39:24;21.30;99.90
23081;DHT22;11708;50.570;8.532;2022-09-03T18:45:40;21.10;99.90
23081;DHT22;11708;50.570;8.532;2022-09-03T18:48:58;21.00;99.90
23081;DHT22;11708;50.570;8.532;2022-09-03T18:52:10;20.90;99.90
23081;DHT22;11708;50.570;8.532;2022-09-03T18:55:18;20.80;99.90
23081;DHT22;11708;50.570;8.532;2022-09-03T18:58:28;20.60;99.90
23081;DHT22;11708;50.570;8.532;2022-09-03T19:01:14;20.50;99.90
23081;DHT22;11708;50.570;8.532;2022-09-03T19:04:14;20.50;99.90
23081;DHT22;11708;50.570;8.532;2022-09-03T19:09:54;20.40;99.90
23081;DHT22;11708;50.570;8.532;2022-09-03T19:16:11;20.20;99.90
23081;DHT22;11708;50.570;8.532;2022-09-03T19:19:22;20.10;99.90
23081;DHT22;11708;50.570;8.532;2022-09-03T19:22:12;20.00;99.90
23081;DHT22;11708;50.570;8.532;2022-09-03T19:25:10;19.90;99.90
23081;DHT22;11708;50.570;8.532;2022-09-03T19:31:05;19.80;99.90
23081;DHT22;11708;50.570;8.532;2022-09-03T19:34:30;19.60;99.90
23081;DHT22;11708;50.570;8.532;2022-09-03T19:37:20;19.60;99.90
23081;DHT22;11708;50.570;8.532;2022-09-03T19:46:29;19.40;99.90
23081;DHT22;11708;50.570;8.532;2022-09-03T19:52:39;19.30;99.90
23081;DHT22;11708;50.570;8.532;2022-09-03T19:55:38;19.20;99.90
23081;DHT22;11708;50.570;8.532;2022-09-03T19:58:25;19.10;99.90
23081;DHT22;11708;50.570;8.532;2022-09-03T20:01:11;19.00;99.90
23081;DHT22;11708;50.570;8.532;2022-09-03T20:03:58;18.90;99.90
23081;DHT22;11708;50.570;8.532;2022-09-03T20:06:44;18.90;99.90
23081;DHT22;11708;50.570;8.532;2022-09-03T20:09:33;18.90;99.90
23081;DHT22;11708;50.570;8.532;2022-09-03T20:12:20;18.80;99.90
23081;DHT22;11708;50.570;8.532;2022-09-03T20:14:46;18.80;99.90
23081;DHT22;11708;50.570;8.532;2022-09-03T20:20:45;18.70;99.90
23081;DHT22;11708;50.570;8.532;2022-09-03T20:26:26;18.60;99.90
23081;DHT22;11708;50.570;8.532;2022-09-03T20:29:23;18.50;99.90
23081;DHT22;11708;50.570;8.532;2022-09-03T20:34:55;18.40;99.90
23081;DHT22;11708;50.570;8.532;2022-09-03T20:37:38;18.40;99.90
23081;DHT22;11708;50.570;8.532;2022-09-03T20:40:33;18.40;99.90
23081;DHT22;11708;50.570;8.532;2022-09-03T20:46:41;18.40;99.90
23081;DHT22;11708;50.570;8.532;2022-09-03T20:55:32;18.10;99.90